createdAt,value
2018-02-20T00:00:13.837Z,39.97
2018-02-20T00:02:41.991Z,36.33
2018-02-20T00:05:10.892Z,36.93
2018-02-20T00:07:39.089Z,36.50
2018-02-20T00:10:07.229Z,38.83
2018-02-20T00:12:35.412Z,39.80
2018-02-20T00:15:03.542Z,40.07
2018-02-20T00:17:31.693Z,37.27
2018-02-20T00:19:59.824Z,38.23
2018-02-20T00:22:28.751Z,34.30
2018-02-20T00:24:56.888Z,37.83
2018-02-20T00:27:25.805Z,38.83
2018-02-20T00:29:53.944Z,35.80
2018-02-20T00:32:22.850Z,35.57
2018-02-20T00:34:51.022Z,38.33
2018-02-20T00:37:19.168Z,36.57
2018-02-20T00:39:47.325Z,36.47
2018-02-20T00:42:15.469Z,39.70
2018-02-20T00:44:43.624Z,37.10
2018-02-20T00:47:11.756Z,34.83
2018-02-20T00:49:39.918Z,41.40
2018-02-20T00:52:08.057Z,35.77
2018-02-20T00:54:36.211Z,35.67
2018-02-20T00:57:04.344Z,38.17
2018-02-20T00:59:32.502Z,35.17
2018-02-20T01:02:00.645Z,40.97
2018-02-20T01:04:28.801Z,35.00
2018-02-20T01:06:57.820Z,33.23
2018-02-20T01:09:25.989Z,37.57
2018-02-20T01:11:54.125Z,30.73
2018-02-20T01:14:22.265Z,39.23
2018-02-20T01:16:50.421Z,38.97
2018-02-20T01:19:18.562Z,36.50
2018-02-20T01:21:46.737Z,34.97
2018-02-20T01:24:14.889Z,38.10
2018-02-20T01:26:43.813Z,36.30
2018-02-20T01:29:11.949Z,39.37
2018-02-20T01:31:40.868Z,38.40
2018-02-20T01:34:09.008Z,31.63
2018-02-20T01:36:37.945Z,37.80
2018-02-20T01:39:06.085Z,38.43
2018-02-20T01:41:35.029Z,32.57
2018-02-20T01:44:03.176Z,41.93
2018-02-20T01:46:31.311Z,38.27
2018-02-20T01:49:00.245Z,37.83
2018-02-20T01:51:28.372Z,39.87
2018-02-20T01:53:57.302Z,35.77
2018-02-20T01:56:25.442Z,33.20
2018-02-20T01:58:54.364Z,39.30
2018-02-20T02:01:22.492Z,39.47
2018-02-20T02:03:50.657Z,38.40
2018-02-20T02:06:18.792Z,37.40
2018-02-20T02:08:46.945Z,34.43
2018-02-20T02:11:15.080Z,40.50
2018-02-20T02:13:43.264Z,35.60
2018-02-20T02:16:12.168Z,34.93
2018-02-20T02:18:41.077Z,38.50
2018-02-20T02:21:09.234Z,29.53
2018-02-20T02:23:38.141Z,36.40
2018-02-20T02:26:06.300Z,36.10
2018-02-20T02:28:34.457Z,32.30
2018-02-20T02:31:03.389Z,40.27
2018-02-20T02:33:31.534Z,32.37
2018-02-20T02:36:00.469Z,31.77
2018-02-20T02:38:28.629Z,35.37
2018-02-20T02:40:56.769Z,31.97
2018-02-20T02:43:25.685Z,36.27
2018-02-20T02:45:53.825Z,29.30
2018-02-20T02:48:22.750Z,36.33
2018-02-20T02:50:50.884Z,33.23
2018-02-20T02:53:19.065Z,39.23
2018-02-20T02:55:47.221Z,33.20
2018-02-20T02:58:15.393Z,35.47
2018-02-20T03:00:43.536Z,35.87
2018-02-20T03:03:11.669Z,31.33
2018-02-20T03:05:39.886Z,33.63
2018-02-20T03:08:08.028Z,29.40
2018-02-20T03:10:36.180Z,35.57
2018-02-20T03:13:05.080Z,32.83
2018-02-20T03:15:33.237Z,32.37
2018-02-20T03:18:02.148Z,33.57
2018-02-20T03:20:30.304Z,34.70
2018-02-20T03:22:59.217Z,29.40
2018-02-20T03:25:27.441Z,30.97
2018-02-20T03:27:55.579Z,35.33
2018-02-20T03:30:23.729Z,37.90
2018-02-20T03:32:51.900Z,35.37
2018-02-20T03:35:20.060Z,31.87
2018-02-20T03:37:49.020Z,32.20
2018-02-20T03:40:17.152Z,37.27
2018-02-20T03:42:45.344Z,34.20
2018-02-20T03:45:13.567Z,31.07
2018-02-20T03:47:42.492Z,36.67
2018-02-20T03:50:10.657Z,32.33
2018-02-20T03:52:38.808Z,37.87
2018-02-20T03:55:07.708Z,40.43
2018-02-20T03:57:36.632Z,38.80
2018-02-20T04:00:04.773Z,35.23
2018-02-20T04:02:33.733Z,33.80
2018-02-20T04:05:01.878Z,39.43
2018-02-20T04:07:30.036Z,35.77
2018-02-20T04:09:58.188Z,28.63
2018-02-20T04:12:27.100Z,35.13
2018-02-20T04:14:55.259Z,34.70
2018-02-20T04:17:23.413Z,39.67
2018-02-20T04:19:52.332Z,36.87
2018-02-20T04:22:20.468Z,35.80
2018-02-20T04:24:49.397Z,39.47
2018-02-20T04:27:17.542Z,36.57
2018-02-20T04:29:46.512Z,42.27
2018-02-20T04:32:14.649Z,45.90
2018-02-20T04:34:42.806Z,43.47
2018-02-20T04:37:10.948Z,39.43
2018-02-20T04:39:39.136Z,45.03
2018-02-20T04:42:08.042Z,40.57
2018-02-20T04:44:36.192Z,41.83
2018-02-20T04:47:05.097Z,39.73
2018-02-20T04:49:33.269Z,36.93
2018-02-20T04:52:01.426Z,41.47
2018-02-20T04:54:30.360Z,41.80
2018-02-20T04:57:01.709Z,45.87
2018-02-20T04:59:29.846Z,42.33
2018-02-20T05:01:58.773Z,35.80
2018-02-20T05:04:26.912Z,39.17
2018-02-20T05:06:55.095Z,38.17
2018-02-20T05:09:23.239Z,37.53
2018-02-20T05:11:52.164Z,38.50
2018-02-20T05:14:20.300Z,43.40
2018-02-20T05:16:48.461Z,39.37
2018-02-20T05:19:16.596Z,36.77
2018-02-20T05:21:44.752Z,45.80
2018-02-20T05:24:12.897Z,48.13
2018-02-20T05:26:45.471Z,45.30
2018-02-20T05:29:13.613Z,73.83
2018-02-20T05:31:41.769Z,66.27
2018-02-20T05:34:09.912Z,90.07
2018-02-20T05:36:38.078Z,98.57
2018-02-20T05:39:07.003Z,84.40
2018-02-20T05:41:35.145Z,65.60
2018-02-20T05:44:03.301Z,95.40
2018-02-20T05:46:31.442Z,61.20
2018-02-20T05:48:59.592Z,55.90
2018-02-20T05:51:27.773Z,48.97
2018-02-20T05:53:56.666Z,47.43
2018-02-20T05:56:24.802Z,68.60
2018-02-20T05:58:53.733Z,41.70
2018-02-20T06:01:21.868Z,48.77
2018-02-20T06:03:50.077Z,54.00
2018-02-20T06:06:19.142Z,62.40
2018-02-20T06:08:47.300Z,60.37
2018-02-20T06:11:16.207Z,58.33
2018-02-20T06:13:44.365Z,59.33
2018-02-20T06:16:13.269Z,64.57
2018-02-20T06:18:41.441Z,62.00
2018-02-20T06:21:09.596Z,60.07
2018-02-20T06:23:37.780Z,61.67
2018-02-20T06:26:06.686Z,61.90
2018-02-20T06:28:34.858Z,65.77
2018-02-20T06:31:03.001Z,71.00
2018-02-20T06:33:31.909Z,70.93
2018-02-20T06:36:00.093Z,64.40
2018-02-20T06:38:28.237Z,69.47
2018-02-20T06:40:57.160Z,68.50
2018-02-20T06:43:25.298Z,63.80
2018-02-20T06:45:53.461Z,84.43
2018-02-20T06:48:21.601Z,76.77
2018-02-20T06:50:49.793Z,71.80
2018-02-20T06:53:17.936Z,69.30
2018-02-20T06:55:46.093Z,73.43
2018-02-20T06:58:14.253Z,75.40
2018-02-20T07:00:43.182Z,66.50
2018-02-20T07:03:11.323Z,64.70
2018-02-20T07:05:39.485Z,67.77
2018-02-20T07:08:08.389Z,79.37
2018-02-20T07:10:36.561Z,67.90
2018-02-20T07:13:05.460Z,61.17
2018-02-20T07:15:33.632Z,55.23
2018-02-20T07:18:01.781Z,49.73
2018-02-20T07:20:30.704Z,54.63
2018-02-20T07:22:58.836Z,66.57
2018-02-20T07:25:27.007Z,60.50
2018-02-20T07:27:55.144Z,50.77
2018-02-20T07:30:23.285Z,66.63
2018-02-20T07:32:52.198Z,59.70
2018-02-20T07:35:20.341Z,60.43
2018-02-20T07:37:49.263Z,56.80
2018-02-20T07:40:18.160Z,53.60
2018-02-20T07:42:46.308Z,52.73
2018-02-20T07:45:14.452Z,57.50
2018-02-20T07:47:43.384Z,52.17
2018-02-20T07:50:11.536Z,52.97
2018-02-20T07:52:40.456Z,54.77
2018-02-20T07:55:08.617Z,64.23
2018-02-20T07:57:36.825Z,53.37
2018-02-20T08:00:04.957Z,59.67
2018-02-20T08:02:33.117Z,59.40
2018-02-20T08:05:01.261Z,56.83
2018-02-20T08:07:29.408Z,58.07
2018-02-20T08:09:57.545Z,54.10
2018-02-20T08:12:25.721Z,52.07
2018-02-20T08:14:53.873Z,52.00
2018-02-20T08:17:22.812Z,54.70
2018-02-20T08:19:50.956Z,53.97
2018-02-20T08:22:19.130Z,54.67
2018-02-20T08:24:47.280Z,47.90
2018-02-20T08:27:16.185Z,56.23
2018-02-20T08:29:45.140Z,60.03
2018-02-20T08:32:13.291Z,52.40
2018-02-20T08:34:41.485Z,56.77
2018-02-20T08:37:09.625Z,54.93
2018-02-20T08:39:37.789Z,57.90
2018-02-20T08:42:05.928Z,51.73
2018-02-20T08:44:34.854Z,61.67
2018-02-20T08:47:03.042Z,63.00
2018-02-20T08:49:31.241Z,56.17
2018-02-20T08:51:59.385Z,55.83
2018-02-20T08:54:27.542Z,60.27
2018-02-20T08:56:55.694Z,58.13
2018-02-20T08:59:24.633Z,58.93
2018-02-20T09:01:52.781Z,51.13
2018-02-20T09:04:20.941Z,51.93
2018-02-20T09:06:49.125Z,52.83
2018-02-20T09:09:17.261Z,63.70
2018-02-20T09:11:45.412Z,61.30
2018-02-20T09:14:13.552Z,51.07
2018-02-20T09:16:41.705Z,56.97
2018-02-20T09:19:10.600Z,52.83
2018-02-20T09:21:38.855Z,65.90
2018-02-20T09:24:07.764Z,61.30
2018-02-20T09:26:35.921Z,57.50
2018-02-20T09:29:04.824Z,51.33
2018-02-20T09:31:33.746Z,49.57
2018-02-20T09:34:01.882Z,50.73
2018-02-20T09:36:30.809Z,56.13
2018-02-20T09:38:58.954Z,48.23
2018-02-20T09:41:27.108Z,45.80
2018-02-20T09:43:56.025Z,42.33
2018-02-20T09:46:24.194Z,52.27
2018-02-20T09:48:52.337Z,45.10
2018-02-20T09:51:20.502Z,49.60
2018-02-20T09:53:48.661Z,47.40
2018-02-20T09:56:16.789Z,45.53
2018-02-20T09:58:44.945Z,50.83
2018-02-20T10:01:13.857Z,54.17
2018-02-20T10:03:42.021Z,58.00
2018-02-20T10:06:10.189Z,49.03
2018-02-20T10:08:39.121Z,54.97
2018-02-20T10:11:07.277Z,45.73
2018-02-20T10:13:35.432Z,46.43
2018-02-20T10:16:04.333Z,43.87
2018-02-20T10:18:32.485Z,41.87
2018-02-20T10:21:01.391Z,41.53
2018-02-20T10:23:29.653Z,42.60
2018-02-20T10:25:57.872Z,45.20
2018-02-20T10:28:26.073Z,44.07
2018-02-20T10:30:54.258Z,41.37
2018-02-20T10:33:22.450Z,34.97
2018-02-20T10:35:52.366Z,35.90
2018-02-20T10:38:21.382Z,34.40
2018-02-20T10:40:49.537Z,36.53
2018-02-20T10:43:17.728Z,34.40
2018-02-20T10:45:51.481Z,35.53
2018-02-20T10:48:19.701Z,40.33
2018-02-20T10:50:47.906Z,38.30
2018-02-20T10:53:16.045Z,34.20
2018-02-20T10:55:49.581Z,37.27
2018-02-20T10:58:17.717Z,36.90
2018-02-20T11:00:45.873Z,33.87
2018-02-20T11:03:14.769Z,32.10
2018-02-20T11:05:44.621Z,33.03
2018-02-20T11:08:12.753Z,35.23
2018-02-20T11:10:41.680Z,34.00
2018-02-20T11:13:09.808Z,34.93
2018-02-20T11:15:37.965Z,34.67
2018-02-20T11:18:06.097Z,33.10
2018-02-20T11:20:34.259Z,33.33
2018-02-20T11:23:02.388Z,31.60
2018-02-20T11:25:30.533Z,34.67
2018-02-20T11:27:58.675Z,35.13
2018-02-20T11:30:26.824Z,35.47
2018-02-20T11:32:55.725Z,34.87
2018-02-20T11:35:26.901Z,32.83
2018-02-20T11:37:55.033Z,36.70
2018-02-20T11:40:23.950Z,36.80
2018-02-20T11:42:52.093Z,30.53
2018-02-20T11:45:22.161Z,35.83
2018-02-20T11:47:50.298Z,33.53
2018-02-20T11:50:18.457Z,32.43
2018-02-20T11:52:47.353Z,33.17
2018-02-20T11:55:16.468Z,36.73
2018-02-20T11:57:44.617Z,31.87
2018-02-20T12:00:13.513Z,34.63
2018-02-20T12:02:41.661Z,35.27
2018-02-20T12:05:10.709Z,35.83
2018-02-20T12:07:39.626Z,31.47
2018-02-20T12:10:07.793Z,36.73
2018-02-20T12:12:35.947Z,33.10
2018-02-20T12:15:04.077Z,39.40
2018-02-20T12:17:32.271Z,38.57
2018-02-20T12:20:00.408Z,32.30
2018-02-20T12:22:28.552Z,36.17
2018-02-20T12:24:59.681Z,30.03
2018-02-20T12:27:27.833Z,36.90
2018-02-20T12:29:55.961Z,33.20
2018-02-20T12:32:24.116Z,34.43
2018-02-20T12:35:00.353Z,36.83
2018-02-20T12:37:28.537Z,35.03
2018-02-20T12:39:56.660Z,35.03
2018-02-20T12:42:25.562Z,35.73
2018-02-20T12:45:06.694Z,34.40
2018-02-20T12:47:34.816Z,33.43
2018-02-20T12:50:03.735Z,30.83
2018-02-20T12:52:31.872Z,32.07
2018-02-20T12:55:01.949Z,35.43
2018-02-20T12:57:30.072Z,31.47
2018-02-20T12:59:58.989Z,34.37
2018-02-20T13:02:27.122Z,30.60
2018-02-20T13:04:56.047Z,33.40
2018-02-20T13:07:24.192Z,36.60
2018-02-20T13:09:53.109Z,30.10
2018-02-20T13:12:21.252Z,31.20
2018-02-20T13:14:51.118Z,30.77
2018-02-20T13:17:19.252Z,30.93
2018-02-20T13:19:48.202Z,28.03
2018-02-20T13:22:16.347Z,27.10
2018-02-20T13:24:46.458Z,26.60
2018-02-20T13:27:14.609Z,31.90
2018-02-20T13:29:42.741Z,32.67
2018-02-20T13:32:10.917Z,28.67
2018-02-20T13:34:40.089Z,28.63
2018-02-20T13:37:08.241Z,25.80
2018-02-20T13:39:36.381Z,25.43
2018-02-20T13:42:05.296Z,26.03
2018-02-20T13:44:33.438Z,26.97
2018-02-20T13:47:02.841Z,29.67
2018-02-20T13:49:30.976Z,29.23
2018-02-20T13:51:59.197Z,25.67
2018-02-20T13:54:28.279Z,28.23
2018-02-20T13:56:56.428Z,24.10
2018-02-20T13:59:24.556Z,26.50
2018-02-20T14:01:52.715Z,26.80
2018-02-20T14:04:21.610Z,28.70
2018-02-20T14:06:58.233Z,36.30
2018-02-20T14:09:26.365Z,50.93
2018-02-20T14:11:54.506Z,63.30
2018-02-20T14:14:22.653Z,71.30
2018-02-20T14:16:54.385Z,77.03
2018-02-20T14:19:22.537Z,91.77
2018-02-20T14:21:51.484Z,60.80
2018-02-20T14:24:19.634Z,33.37
2018-02-20T14:26:53.627Z,39.10
2018-02-20T14:29:21.784Z,32.60
2018-02-20T14:31:49.937Z,35.77
2018-02-20T14:34:18.854Z,31.30
2018-02-20T14:36:47.966Z,34.07
2018-02-20T14:39:16.121Z,34.67
2018-02-20T14:41:44.261Z,29.20
2018-02-20T14:44:12.425Z,33.30
2018-02-20T14:46:40.555Z,32.37
2018-02-20T14:49:08.706Z,33.70
2018-02-20T14:51:37.596Z,32.83
2018-02-20T14:54:05.766Z,37.57
2018-02-20T14:56:34.657Z,34.83
2018-02-20T14:59:02.807Z,31.73
2018-02-20T15:01:30.933Z,32.97
2018-02-20T15:03:59.081Z,31.20
2018-02-20T15:06:27.220Z,31.57
2018-02-20T15:08:55.417Z,31.83
2018-02-20T15:11:24.333Z,32.90
2018-02-20T15:13:52.457Z,33.17
2018-02-20T15:16:20.605Z,29.67
2018-02-20T15:18:48.746Z,28.90
2018-02-20T15:21:16.906Z,28.83
2018-02-20T15:23:45.040Z,31.37
2018-02-20T15:26:13.190Z,32.03
2018-02-20T15:28:41.312Z,28.30
2018-02-20T15:31:10.234Z,31.10
2018-02-20T15:33:38.365Z,31.17
2018-02-20T15:36:06.518Z,33.23
2018-02-20T15:38:34.645Z,33.83
2018-02-20T15:41:02.813Z,30.23
2018-02-20T15:43:30.954Z,35.60
2018-02-20T15:45:59.104Z,34.27
2018-02-20T15:48:27.229Z,31.43
2018-02-20T15:50:55.381Z,32.97
2018-02-20T15:53:24.273Z,31.83
2018-02-20T15:55:53.189Z,32.73
2018-02-20T15:58:21.362Z,39.30
2018-02-20T16:00:49.512Z,30.33
2018-02-20T16:03:18.405Z,31.37
2018-02-20T16:05:46.570Z,32.63
2018-02-20T16:08:14.701Z,34.07
2018-02-20T16:10:42.877Z,32.73
2018-02-20T16:13:11.012Z,32.77
2018-02-20T16:15:40.041Z,35.03
2018-02-20T16:18:08.193Z,32.57
2018-02-20T16:20:36.318Z,35.67
2018-02-20T16:23:04.464Z,37.17
2018-02-20T16:25:32.615Z,36.40
2018-02-20T16:28:00.764Z,38.13
2018-02-20T16:30:29.649Z,32.00
2018-02-20T16:32:58.568Z,32.47
2018-02-20T16:35:26.717Z,36.60
2018-02-20T16:37:54.872Z,33.67
2018-02-20T16:40:22.989Z,33.40
2018-02-20T16:42:51.133Z,32.43
2018-02-20T16:45:20.965Z,35.50
2018-02-20T16:47:49.120Z,38.23
2018-02-20T16:50:17.257Z,39.20
2018-02-20T16:52:45.410Z,33.20
2018-02-20T16:55:14.491Z,36.27
2018-02-20T16:57:42.643Z,37.97
2018-02-20T17:00:10.791Z,35.43
2018-02-20T17:02:39.731Z,38.43
2018-02-20T17:05:07.861Z,37.23
2018-02-20T17:07:36.761Z,33.10
2018-02-20T17:10:05.674Z,36.77
2018-02-20T17:12:33.805Z,36.47
2018-02-20T17:15:10.651Z,35.80
2018-02-20T17:17:38.788Z,31.03
2018-02-20T17:20:06.989Z,33.57
2018-02-20T17:22:35.120Z,35.93
2018-02-20T17:25:04.989Z,35.00
2018-02-20T17:27:33.125Z,38.17
2018-02-20T17:30:01.290Z,37.07
2018-02-20T17:32:29.431Z,39.73
2018-02-20T17:34:58.598Z,35.90
2018-02-20T17:37:26.737Z,36.03
2018-02-20T17:39:54.898Z,33.60
2018-02-20T17:42:23.811Z,35.73
2018-02-20T17:44:53.880Z,35.23
2018-02-20T17:47:22.021Z,35.10
2018-02-20T17:49:50.180Z,35.07
2018-02-20T17:52:18.322Z,37.07
2018-02-20T17:54:48.211Z,34.63
2018-02-20T17:57:16.356Z,32.80
2018-02-20T17:59:44.497Z,35.83
2018-02-20T18:02:12.657Z,38.53
2018-02-20T18:04:40.801Z,40.57
2018-02-20T18:07:08.953Z,38.63
2018-02-20T18:09:37.090Z,37.47
2018-02-20T18:12:05.250Z,35.00
2018-02-20T18:14:33.392Z,39.20
2018-02-20T18:17:01.548Z,39.83
2018-02-20T18:19:29.700Z,42.80
2018-02-20T18:21:57.852Z,43.10
2018-02-20T18:24:25.993Z,40.17
2018-02-20T18:26:54.145Z,41.47
2018-02-20T18:29:22.283Z,43.33
2018-02-20T18:31:50.441Z,43.57
2018-02-20T18:34:18.582Z,44.70
2018-02-20T18:36:46.745Z,36.83
2018-02-20T18:39:14.884Z,37.83
2018-02-20T18:41:43.038Z,44.07
2018-02-20T18:44:11.192Z,45.27
2018-02-20T18:46:39.370Z,42.03
2018-02-20T18:49:07.516Z,43.80
2018-02-20T18:51:35.685Z,49.07
2018-02-20T18:54:03.830Z,46.13
2018-02-20T18:56:35.169Z,52.37
2018-02-20T18:59:03.339Z,45.77
2018-02-20T19:01:31.473Z,47.00
2018-02-20T19:04:00.393Z,41.77
2018-02-20T19:06:30.544Z,43.97
2018-02-20T19:08:58.709Z,47.13
2018-02-20T19:11:26.865Z,48.77
2018-02-20T19:13:55.026Z,45.90
2018-02-20T19:16:27.097Z,45.50
2018-02-20T19:18:55.252Z,55.00
2018-02-20T19:21:24.153Z,38.80
2018-02-20T19:23:52.312Z,40.67
2018-02-20T19:26:22.161Z,39.40
2018-02-20T19:28:50.322Z,44.30
2018-02-20T19:31:18.476Z,47.47
2018-02-20T19:33:48.960Z,45.33
2018-02-20T19:36:17.098Z,45.70
2018-02-20T19:38:45.260Z,48.67
2018-02-20T19:41:13.393Z,49.33
2018-02-20T19:43:42.458Z,56.80
2018-02-20T19:46:10.597Z,50.80
2018-02-20T19:48:38.769Z,47.63
2018-02-20T19:51:06.905Z,51.13
2018-02-20T19:53:35.071Z,47.43
2018-02-20T19:56:03.209Z,42.37
2018-02-20T19:58:31.369Z,48.10
2018-02-20T20:00:59.509Z,49.57
2018-02-20T20:03:28.429Z,53.50
2018-02-20T20:05:56.623Z,44.47
2018-02-20T20:08:24.785Z,52.10
2018-02-20T20:10:52.941Z,47.43
2018-02-20T20:13:21.085Z,37.93
2018-02-20T20:15:49.248Z,48.97
2018-02-20T20:18:17.381Z,49.17
2018-02-20T20:20:48.059Z,51.37
2018-02-20T20:23:13.692Z,52.10
2018-02-20T20:25:42.613Z,55.77
2018-02-20T20:28:10.753Z,59.00
2018-02-20T20:30:39.699Z,52.17
2018-02-20T20:33:07.833Z,54.17
2018-02-20T20:35:36.753Z,54.27
2018-02-20T20:38:05.656Z,51.93
2018-02-20T20:40:33.810Z,52.17
2018-02-20T20:43:01.946Z,52.90
2018-02-20T20:45:30.871Z,57.80
2018-02-20T20:47:59.776Z,60.27
2018-02-20T20:50:27.996Z,60.40
2018-02-20T20:52:56.905Z,56.13
2018-02-20T20:55:25.829Z,59.90
2018-02-20T20:57:53.980Z,58.73
2018-02-20T21:00:22.141Z,63.53
2018-02-20T21:02:51.049Z,63.93
2018-02-20T21:05:19.233Z,56.70
2018-02-20T21:07:47.369Z,63.27
2018-02-20T21:10:16.273Z,65.80
2018-02-20T21:12:44.476Z,67.93
2018-02-20T21:15:13.377Z,59.93
2018-02-20T21:17:41.541Z,58.20
2018-02-20T21:20:09.675Z,59.23
2018-02-20T21:22:38.598Z,63.90
2018-02-20T21:25:06.737Z,69.13
2018-02-20T21:27:35.660Z,70.13
2018-02-20T21:30:03.798Z,67.27
2018-02-20T21:32:32.741Z,70.53
2018-02-20T21:35:03.893Z,68.57
2018-02-20T21:37:32.048Z,68.90
2018-02-20T21:40:00.188Z,67.00
2018-02-20T21:42:29.109Z,68.90
2018-02-20T21:44:57.244Z,73.80
2018-02-20T21:47:26.171Z,71.47
2018-02-20T21:49:54.309Z,64.90
2018-02-20T21:52:23.237Z,66.20
2018-02-20T21:54:51.380Z,66.50
2018-02-20T21:57:20.304Z,69.73
2018-02-20T21:59:48.440Z,73.47
2018-02-20T22:02:17.376Z,71.37
2018-02-20T22:04:45.514Z,78.00
2018-02-20T22:07:13.653Z,75.13
2018-02-20T22:09:41.805Z,76.77
2018-02-20T22:12:09.941Z,74.10
2018-02-20T22:14:38.098Z,79.20
2018-02-20T22:17:07.020Z,81.33
2018-02-20T22:19:35.205Z,82.77
2018-02-20T22:22:03.341Z,80.70
2018-02-20T22:24:31.510Z,81.83
2018-02-20T22:27:00.413Z,72.97
2018-02-20T22:29:28.573Z,72.23
2018-02-20T22:31:56.729Z,75.43
2018-02-20T22:34:25.657Z,67.27
2018-02-20T22:36:54.732Z,71.87
2018-02-20T22:39:23.669Z,70.80
2018-02-20T22:41:51.812Z,66.00
2018-02-20T22:44:19.969Z,71.17
2018-02-20T22:46:48.882Z,72.93
2018-02-20T22:49:17.069Z,76.10
2018-02-20T22:51:45.309Z,75.17
2018-02-20T22:54:14.249Z,82.13
2018-02-20T22:56:42.443Z,85.67
2018-02-20T22:59:10.601Z,79.40
2018-02-20T23:01:38.781Z,77.63
2018-02-20T23:04:06.968Z,87.90
2018-02-20T23:06:35.161Z,89.07
2018-02-20T23:09:04.140Z,81.23
2018-02-20T23:11:47.125Z,96.27
2018-02-20T23:14:15.325Z,91.70
2018-02-20T23:16:43.508Z,82.80
2018-02-20T23:19:11.654Z,87.60
2018-02-20T23:21:39.825Z,92.53
2018-02-20T23:24:07.960Z,88.53
2018-02-20T23:26:36.121Z,78.70
2018-02-20T23:29:05.058Z,72.23
2018-02-20T23:31:33.245Z,78.73
2018-02-20T23:34:01.407Z,69.80
2018-02-20T23:36:29.557Z,72.57
2018-02-20T23:38:57.694Z,66.33
2018-02-20T23:41:26.648Z,74.23
2018-02-20T23:43:54.784Z,81.77
2018-02-20T23:46:22.921Z,69.20
2018-02-20T23:48:51.076Z,80.50
2018-02-20T23:51:24.805Z,69.23
2018-02-20T23:53:53.733Z,78.00
2018-02-20T23:56:21.873Z,91.20
2018-02-20T23:58:50.798Z,86.77
